sensor_id;sensor_type;location;lat;lon;timestamp;temperature;humidity
23499;DHT22;11926;48.120;11.562;2022-10-18T00:00:57;13.40;91.60
23499;DHT22;11926;48.120;11.562;2022-10-18T00:03:44;13.40;91.70
23499;DHT22;11926;48.120;11.562;2022-10-18T00:06:31;13.40;91.70
23499;DHT22;11926;48.120;11.562;2022-10-18T00:09:18;13.30;91.70
23499;DHT22;11926;48.120;11.562;2022-10-18T00:12:06;13.30;91.80
23499;DHT22;11926;48.120;11.562;2022-10-18T00:14:53;13.30;91.80
23499;DHT22;11926;48.120;11.562;2022-10-18T00:17:40;13.30;91.80
23499;DHT22;11926;48.120;11.562;2022-10-18T00:20:28;13.20;91.80
23499;DHT22;11926;48.120;11.562;2022-10-18T00:23:15;13.20;91.80
23499;DHT22;11926;48.120;11.562;2022-10-18T00:26:04;13.20;91.80
23499;DHT22;11926;48.120;11.562;2022-10-18T00:28:55;13.20;91.90
23499;DHT22;11926;48.120;11.562;2022-10-18T00:31:43;13.20;91.90
23499;DHT22;11926;48.120;11.562;2022-10-18T00:34:30;13.10;91.90
23499;DHT22;11926;48.120;11.562;2022-10-18T00:37:17;13.10;91.90
23499;DHT22;11926;48.120;11.562;2022-10-18T00:40:05;13.10;91.90
23499;DHT22;11926;48.120;11.562;2022-10-18T00:42:52;13.10;91.90
23499;DHT22;11926;48.120;11.562;2022-10-18T00:45:41;13.10;91.80
23499;DHT22;11926;48.120;11.562;2022-10-18T00:48:28;13.10;91.90
23499;DHT22;11926;48.120;11.562;2022-10-18T00:51:16;13.00;91.80
23499;DHT22;11926;48.120;11.562;2022-10-18T00:54:04;13.00;91.90
23499;DHT22;11926;48.120;11.562;2022-10-18T00:56:51;12.90;91.90
23499;DHT22;11926;48.120;11.562;2022-10-18T00:59:39;13.00;92.00
23499;DHT22;11926;48.120;11.562;2022-10-18T01:02:28;13.00;92.00
23499;DHT22;11926;48.120;11.562;2022-10-18T01:05:17;12.90;92.00
23499;DHT22;11926;48.120;11.562;2022-10-18T01:08:23;12.90;92.00
23499;DHT22;11926;48.120;11.562;2022-10-18T01:11:31;12.90;92.00
23499;DHT22;11926;48.120;11.562;2022-10-18T01:14:29;12.80;92.00
23499;DHT22;11926;48.120;11.562;2022-10-18T01:17:26;12.80;92.00
23499;DHT22;11926;48.120;11.562;2022-10-18T01:20:40;12.80;92.00
23499;DHT22;11926;48.120;11.562;2022-10-18T01:23:52;12.80;92.00
23499;DHT22;11926;48.120;11.562;2022-10-18T01:27:05;12.70;92.00
23499;DHT22;11926;48.120;11.562;2022-10-18T01:33:18;12.70;92.20
23499;DHT22;11926;48.120;11.562;2022-10-18T01:36:16;12.60;92.20
23499;DHT22;11926;48.120;11.562;2022-10-18T01:39:07;12.60;92.20
23499;DHT22;11926;48.120;11.562;2022-10-18T01:41:55;12.60;92.10
23499;DHT22;11926;48.120;11.562;2022-10-18T01:44:45;12.50;92.10
23499;DHT22;11926;48.120;11.562;2022-10-18T01:47:33;12.50;92.10
23499;DHT22;11926;48.120;11.562;2022-10-18T01:50:33;12.50;92.10
23499;DHT22;11926;48.120;11.562;2022-10-18T01:53:25;12.50;92.10
23499;DHT22;11926;48.120;11.562;2022-10-18T01:56:28;12.50;92.10
23499;DHT22;11926;48.120;11.562;2022-10-18T01:59:27;12.50;92.10
23499;DHT22;11926;48.120;11.562;2022-10-18T02:02:27;12.50;92.10
23499;DHT22;11926;48.120;11.562;2022-10-18T02:05:23;12.40;92.10
23499;DHT22;11926;48.120;11.562;2022-10-18T02:08:19;12.40;92.20
23499;DHT22;11926;48.120;11.562;2022-10-18T02:11:13;12.40;92.20
23499;DHT22;11926;48.120;11.562;2022-10-18T02:14:06;12.30;92.20
23499;DHT22;11926;48.120;11.562;2022-10-18T02:16:56;12.30;92.20
23499;DHT22;11926;48.120;11.562;2022-10-18T02:19:46;12.30;92.30
23499;DHT22;11926;48.120;11.562;2022-10-18T02:22:36;12.30;92.30
23499;DHT22;11926;48.120;11.562;2022-10-18T02:25:30;12.20;92.30
23499;DHT22;11926;48.120;11.562;2022-10-18T02:28:20;12.20;92.40
23499;DHT22;11926;48.120;11.562;2022-10-18T02:31:12;12.20;92.40
23499;DHT22;11926;48.120;11.562;2022-10-18T02:34:05;12.20;92.50
23499;DHT22;11926;48.120;11.562;2022-10-18T02:36:55;12.20;92.50
23499;DHT22;11926;48.120;11.562;2022-10-18T02:39:46;12.20;92.40
23499;DHT22;11926;48.120;11.562;2022-10-18T02:42:37;12.10;92.40
23499;DHT22;11926;48.120;11.562;2022-10-18T02:45:26;12.10;92.50
23499;DHT22;11926;48.120;11.562;2022-10-18T02:48:13;12.10;92.50
23499;DHT22;11926;48.120;11.562;2022-10-18T02:51:00;12.10;92.50
23499;DHT22;11926;48.120;11.562;2022-10-18T02:53:47;12.10;92.50
23499;DHT22;11926;48.120;11.562;2022-10-18T02:56:34;12.00;92.50
23499;DHT22;11926;48.120;11.562;2022-10-18T02:59:23;12.00;92.50
23499;DHT22;11926;48.120;11.562;2022-10-18T03:02:10;12.00;92.60
23499;DHT22;11926;48.120;11.562;2022-10-18T03:04:58;12.00;92.70
23499;DHT22;11926;48.120;11.562;2022-10-18T03:07:45;12.00;92.60
23499;DHT22;11926;48.120;11.562;2022-10-18T03:10:32;12.00;92.70
23499;DHT22;11926;48.120;11.562;2022-10-18T03:13:19;12.00;92.70
23499;DHT22;11926;48.120;11.562;2022-10-18T03:16:07;11.90;92.70
23499;DHT22;11926;48.120;11.562;2022-10-18T03:18:55;11.90;92.70
23499;DHT22;11926;48.120;11.562;2022-10-18T03:21:42;11.90;92.70
23499;DHT22;11926;48.120;11.562;2022-10-18T03:24:29;11.80;92.80
23499;DHT22;11926;48.120;11.562;2022-10-18T03:27:16;11.80;92.80
23499;DHT22;11926;48.120;11.562;2022-10-18T03:30:03;11.80;92.90
23499;DHT22;11926;48.120;11.562;2022-10-18T03:32:52;11.80;93.00
23499;DHT22;11926;48.120;11.562;2022-10-18T03:35:40;11.80;93.10
23499;DHT22;11926;48.120;11.562;2022-10-18T03:38:27;11.80;93.10
23499;DHT22;11926;48.120;11.562;2022-10-18T03:41:14;11.80;93.10
23499;DHT22;11926;48.120;11.562;2022-10-18T03:44:01;11.80;93.10
23499;DHT22;11926;48.120;11.562;2022-10-18T03:46:48;11.80;93.10
23499;DHT22;11926;48.120;11.562;2022-10-18T03:49:36;11.80;93.10
23499;DHT22;11926;48.120;11.562;2022-10-18T03:52:23;11.80;93.10
23499;DHT22;11926;48.120;11.562;2022-10-18T03:55:10;11.80;93.10
23499;DHT22;11926;48.120;11.562;2022-10-18T03:57:57;11.80;93.00
23499;DHT22;11926;48.120;11.562;2022-10-18T04:00:44;11.80;93.00
23499;DHT22;11926;48.120;11.562;2022-10-18T04:03:31;11.80;93.00
23499;DHT22;11926;48.120;11.562;2022-10-18T04:06:20;11.70;93.00
23499;DHT22;11926;48.120;11.562;2022-10-18T04:09:07;11.70;93.10
23499;DHT22;11926;48.120;11.562;2022-10-18T04:11:55;11.70;93.10
23499;DHT22;11926;48.120;11.562;2022-10-18T04:14:42;11.70;93.10
23499;DHT22;11926;48.120;11.562;2022-10-18T04:17:29;11.70;93.10
23499;DHT22;11926;48.120;11.562;2022-10-18T04:20:17;11.70;93.20
23499;DHT22;11926;48.120;11.562;2022-10-18T04:23:05;11.70;93.20
23499;DHT22;11926;48.120;11.562;2022-10-18T04:25:53;11.70;93.10
23499;DHT22;11926;48.120;11.562;2022-10-18T04:28:40;11.70;93.10
23499;DHT22;11926;48.120;11.562;2022-10-18T04:31:27;11.70;93.10
23499;DHT22;11926;48.120;11.562;2022-10-18T04:34:14;11.70;93.10
23499;DHT22;11926;48.120;11.562;2022-10-18T04:37:02;11.60;93.10
23499;DHT22;11926;48.120;11.562;2022-10-18T04:39:50;11.60;93.10
23499;DHT22;11926;48.120;11.562;2022-10-18T04:42:38;11.60;93.10
23499;DHT22;11926;48.120;11.562;2022-10-18T04:45:26;11.60;93.00
23499;DHT22;11926;48.120;11.562;2022-10-18T04:48:13;11.60;93.10
23499;DHT22;11926;48.120;11.562;2022-10-18T04:51:00;11.50;93.10
23499;DHT22;11926;48.120;11.562;2022-10-18T04:53:47;11.50;93.10
23499;DHT22;11926;48.120;11.562;2022-10-18T04:56:36;11.50;93.10
23499;DHT22;11926;48.120;11.562;2022-10-18T04:59:23;11.50;93.20
23499;DHT22;11926;48.120;11.562;2022-10-18T05:02:11;11.50;93.30
23499;DHT22;11926;48.120;11.562;2022-10-18T05:04:58;11.50;93.40
23499;DHT22;11926;48.120;11.562;2022-10-18T05:07:45;11.50;93.40
23499;DHT22;11926;48.120;11.562;2022-10-18T05:10:32;11.50;93.40
23499;DHT22;11926;48.120;11.562;2022-10-18T05:13:21;11.50;93.50
23499;DHT22;11926;48.120;11.562;2022-10-18T05:16:08;11.50;93.50
23499;DHT22;11926;48.120;11.562;2022-10-18T05:18:55;11.50;93.60
23499;DHT22;11926;48.120;11.562;2022-10-18T05:21:42;11.50;93.60
23499;DHT22;11926;48.120;11.562;2022-10-18T05:24:29;11.60;93.70
23499;DHT22;11926;48.120;11.562;2022-10-18T05:27:16;11.50;93.80
23499;DHT22;11926;48.120;11.562;2022-10-18T05:30:05;11.60;93.90
23499;DHT22;11926;48.120;11.562;2022-10-18T05:32:52;11.60;94.00
23499;DHT22;11926;48.120;11.562;2022-10-18T05:35:40;11.60;94.10
23499;DHT22;11926;48.120;11.562;2022-10-18T05:38:27;11.70;94.20
23499;DHT22;11926;48.120;11.562;2022-10-18T05:41:16;11.70;94.30
23499;DHT22;11926;48.120;11.562;2022-10-18T05:44:04;11.70;94.60
23499;DHT22;11926;48.120;11.562;2022-10-18T05:46:53;11.70;94.30
23499;DHT22;11926;48.120;11.562;2022-10-18T05:49:40;11.80;94.40
23499;DHT22;11926;48.120;11.562;2022-10-18T05:52:28;11.80;94.40
23499;DHT22;11926;48.120;11.562;2022-10-18T05:55:15;11.80;94.40
23499;DHT22;11926;48.120;11.562;2022-10-18T05:58:03;11.90;94.50
23499;DHT22;11926;48.120;11.562;2022-10-18T06:00:50;11.90;94.50
23499;DHT22;11926;48.120;11.562;2022-10-18T06:03:38;12.00;94.60
23499;DHT22;11926;48.120;11.562;2022-10-18T06:06:26;12.00;94.60
23499;DHT22;11926;48.120;11.562;2022-10-18T06:09:13;12.10;94.70
23499;DHT22;11926;48.120;11.562;2022-10-18T06:12:00;12.10;94.70
23499;DHT22;11926;48.120;11.562;2022-10-18T06:14:47;12.20;94.80
23499;DHT22;11926;48.120;11.562;2022-10-18T06:17:35;12.30;94.90
23499;DHT22;11926;48.120;11.562;2022-10-18T06:20:24;12.30;94.80
23499;DHT22;11926;48.120;11.562;2022-10-18T06:23:11;12.40;94.90
23499;DHT22;11926;48.120;11.562;2022-10-18T06:25:59;12.50;94.90
23499;DHT22;11926;48.120;11.562;2022-10-18T06:28:49;12.50;94.90
23499;DHT22;11926;48.120;11.562;2022-10-18T06:31:36;12.60;94.90
23499;DHT22;11926;48.120;11.562;2022-10-18T06:34:24;12.70;95.00
23499;DHT22;11926;48.120;11.562;2022-10-18T06:37:13;12.70;95.00
23499;DHT22;11926;48.120;11.562;2022-10-18T06:40:01;12.80;94.90
23499;DHT22;11926;48.120;11.562;2022-10-18T06:42:48;12.90;94.90
23499;DHT22;11926;48.120;11.562;2022-10-18T06:45:56;12.90;94.80
23499;DHT22;11926;48.120;11.562;2022-10-18T06:48:44;13.00;94.80
23499;DHT22;11926;48.120;11.562;2022-10-18T06:51:31;13.00;94.70
23499;DHT22;11926;48.120;11.562;2022-10-18T06:54:22;13.10;94.70
23499;DHT22;11926;48.120;11.562;2022-10-18T06:57:10;13.20;94.80
23499;DHT22;11926;48.120;11.562;2022-10-18T06:59:58;13.20;94.70
23499;DHT22;11926;48.120;11.562;2022-10-18T07:02:46;13.30;94.70
23499;DHT22;11926;48.120;11.562;2022-10-18T07:05:34;13.30;94.70
23499;DHT22;11926;48.120;11.562;2022-10-18T07:08:22;13.40;94.70
23499;DHT22;11926;48.120;11.562;2022-10-18T07:11:14;13.40;94.50
23499;DHT22;11926;48.120;11.562;2022-10-18T07:14:02;13.50;94.50
23499;DHT22;11926;48.120;11.562;2022-10-18T07:16:49;13.50;94.50
23499;DHT22;11926;48.120;11.562;2022-10-18T07:19:36;13.70;94.50
23499;DHT22;11926;48.120;11.562;2022-10-18T07:22:23;13.70;94.50
23499;DHT22;11926;48.120;11.562;2022-10-18T07:25:15;13.80;94.40
23499;DHT22;11926;48.120;11.562;2022-10-18T07:28:04;13.90;94.20
23499;DHT22;11926;48.120;11.562;2022-10-18T07:30:51;14.00;94.30
23499;DHT22;11926;48.120;11.562;2022-10-18T07:33:39;14.00;94.10
23499;DHT22;11926;48.120;11.562;2022-10-18T07:36:27;14.20;94.30
23499;DHT22;11926;48.120;11.562;2022-10-18T07:39:15;14.20;94.30
23499;DHT22;11926;48.120;11.562;2022-10-18T07:42:01;14.30;94.10
23499;DHT22;11926;48.120;11.562;2022-10-18T07:44:50;14.40;93.90
23499;DHT22;11926;48.120;11.562;2022-10-18T07:47:37;14.50;93.90
23499;DHT22;11926;48.120;11.562;2022-10-18T07:50:24;14.60;93.80
23499;DHT22;11926;48.120;11.562;2022-10-18T07:53:12;14.70;93.80
23499;DHT22;11926;48.120;11.562;2022-10-18T07:55:59;14.80;93.60
23499;DHT22;11926;48.120;11.562;2022-10-18T07:58:55;14.90;93.60
23499;DHT22;11926;48.120;11.562;2022-10-18T08:01:44;14.90;93.50
23499;DHT22;11926;48.120;11.562;2022-10-18T08:04:32;15.10;93.50
23499;DHT22;11926;48.120;11.562;2022-10-18T08:07:22;15.10;93.20
23499;DHT22;11926;48.120;11.562;2022-10-18T08:10:10;15.30;93.10
23499;DHT22;11926;48.120;11.562;2022-10-18T08:12:58;15.40;92.80
23499;DHT22;11926;48.120;11.562;2022-10-18T08:15:46;15.50;92.60
23499;DHT22;11926;48.120;11.562;2022-10-18T08:18:35;15.60;92.30
23499;DHT22;11926;48.120;11.562;2022-10-18T08:21:23;15.70;92.20
23499;DHT22;11926;48.120;11.562;2022-10-18T08:24:12;15.70;92.00
23499;DHT22;11926;48.120;11.562;2022-10-18T08:26:59;15.80;91.80
23499;DHT22;11926;48.120;11.562;2022-10-18T08:29:48;15.90;91.70
23499;DHT22;11926;48.120;11.562;2022-10-18T08:32:36;16.00;91.90
23499;DHT22;11926;48.120;11.562;2022-10-18T08:35:25;16.10;91.40
23499;DHT22;11926;48.120;11.562;2022-10-18T08:38:13;16.30;91.20
23499;DHT22;11926;48.120;11.562;2022-10-18T08:41:21;16.40;91.30
23499;DHT22;11926;48.120;11.562;2022-10-18T08:44:17;16.50;91.00
23499;DHT22;11926;48.120;11.562;2022-10-18T08:47:06;16.70;91.10
23499;DHT22;11926;48.120;11.562;2022-10-18T08:50:01;16.80;91.10
23499;DHT22;11926;48.120;11.562;2022-10-18T08:52:55;17.00;90.80
23499;DHT22;11926;48.120;11.562;2022-10-18T08:55:46;17.20;90.80
23499;DHT22;11926;48.120;11.562;2022-10-18T08:58:37;17.40;90.40
23499;DHT22;11926;48.120;11.562;2022-10-18T09:01:35;17.50;90.30
23499;DHT22;11926;48.120;11.562;2022-10-18T09:04:35;17.70;90.50
23499;DHT22;11926;48.120;11.562;2022-10-18T09:07:37;17.90;90.00
23499;DHT22;11926;48.120;11.562;2022-10-18T09:10:42;18.10;89.90
23499;DHT22;11926;48.120;11.562;2022-10-18T09:14:00;18.30;89.30
23499;DHT22;11926;48.120;11.562;2022-10-18T09:16:56;18.40;88.50
23499;DHT22;11926;48.120;11.562;2022-10-18T09:20:00;18.60;88.30
23499;DHT22;11926;48.120;11.562;2022-10-18T09:22:55;18.60;87.70
23499;DHT22;11926;48.120;11.562;2022-10-18T09:25:45;18.70;87.50
23499;DHT22;11926;48.120;11.562;2022-10-18T09:28:40;18.80;87.00
23499;DHT22;11926;48.120;11.562;2022-10-18T09:31:40;18.90;86.80
23499;DHT22;11926;48.120;11.562;2022-10-18T09:34:38;19.10;87.40
23499;DHT22;11926;48.120;11.562;2022-10-18T09:37:29;19.20;86.00
23499;DHT22;11926;48.120;11.562;2022-10-18T09:40:22;19.40;85.60
23499;DHT22;11926;48.120;11.562;2022-10-18T09:43:16;19.60;85.10
23499;DHT22;11926;48.120;11.562;2022-10-18T09:46:06;19.80;84.10
23499;DHT22;11926;48.120;11.562;2022-10-18T09:48:57;19.90;83.50
23499;DHT22;11926;48.120;11.562;2022-10-18T09:51:48;20.00;83.10
23499;DHT22;11926;48.120;11.562;2022-10-18T09:54:41;20.20;82.60
23499;DHT22;11926;48.120;11.562;2022-10-18T09:57:36;20.30;82.00
23499;DHT22;11926;48.120;11.562;2022-10-18T10:00:30;20.40;82.10
23499;DHT22;11926;48.120;11.562;2022-10-18T10:03:19;20.60;81.80
23499;DHT22;11926;48.120;11.562;2022-10-18T10:06:23;20.70;81.50
23499;DHT22;11926;48.120;11.562;2022-10-18T10:09:14;20.90;80.50
23499;DHT22;11926;48.120;11.562;2022-10-18T10:12:04;21.00;79.40
23499;DHT22;11926;48.120;11.562;2022-10-18T10:14:51;21.10;78.20
23499;DHT22;11926;48.120;11.562;2022-10-18T10:17:42;21.30;78.10
23499;DHT22;11926;48.120;11.562;2022-10-18T10:20:34;21.30;77.10
23499;DHT22;11926;48.120;11.562;2022-10-18T10:23:24;21.40;76.90
23499;DHT22;11926;48.120;11.562;2022-10-18T10:26:21;21.50;76.30
23499;DHT22;11926;48.120;11.562;2022-10-18T10:32:31;21.70;76.50
23499;DHT22;11926;48.120;11.562;2022-10-18T10:35:33;21.90;75.70
23499;DHT22;11926;48.120;11.562;2022-10-18T10:38:41;22.20;74.70
23499;DHT22;11926;48.120;11.562;2022-10-18T10:41:29;22.50;74.70
23499;DHT22;11926;48.120;11.562;2022-10-18T10:44:19;22.70;72.90
23499;DHT22;11926;48.120;11.562;2022-10-18T10:47:30;22.90;72.60
23499;DHT22;11926;48.120;11.562;2022-10-18T10:50:24;23.20;73.70
23499;DHT22;11926;48.120;11.562;2022-10-18T10:53:26;23.30;71.30
23499;DHT22;11926;48.120;11.562;2022-10-18T10:56:20;23.50;70.30
23499;DHT22;11926;48.120;11.562;2022-10-18T10:59:08;23.70;70.10
23499;DHT22;11926;48.120;11.562;2022-10-18T11:02:18;23.80;71.00
23499;DHT22;11926;48.120;11.562;2022-10-18T11:05:22;24.00;69.00
23499;DHT22;11926;48.120;11.562;2022-10-18T11:08:11;24.10;68.40
23499;DHT22;11926;48.120;11.562;2022-10-18T11:11:06;24.30;67.80
23499;DHT22;11926;48.120;11.562;2022-10-18T11:14:08;24.50;66.90
23499;DHT22;11926;48.120;11.562;2022-10-18T11:17:19;24.60;67.00
23499;DHT22;11926;48.120;11.562;2022-10-18T11:20:16;24.70;65.70
23499;DHT22;11926;48.120;11.562;2022-10-18T11:23:06;24.80;65.70
23499;DHT22;11926;48.120;11.562;2022-10-18T11:26:04;25.00;65.10
23499;DHT22;11926;48.120;11.562;2022-10-18T11:29:10;25.10;64.60
23499;DHT22;11926;48.120;11.562;2022-10-18T11:32:08;25.10;63.20
23499;DHT22;11926;48.120;11.562;2022-10-18T11:35:06;25.10;63.30
23499;DHT22;11926;48.120;11.562;2022-10-18T11:38:05;25.20;63.60
23499;DHT22;11926;48.120;11.562;2022-10-18T11:41:12;25.20;64.40
23499;DHT22;11926;48.120;11.562;2022-10-18T11:44:06;25.30;63.30
23499;DHT22;11926;48.120;11.562;2022-10-18T11:47:00;25.40;63.40
23499;DHT22;11926;48.120;11.562;2022-10-18T11:49:59;25.50;62.60
23499;DHT22;11926;48.120;11.562;2022-10-18T11:52:55;25.60;62.70
23499;DHT22;11926;48.120;11.562;2022-10-18T11:55:53;25.70;63.90
23499;DHT22;11926;48.120;11.562;2022-10-18T11:58:55;25.70;63.20
23499;DHT22;11926;48.120;11.562;2022-10-18T12:01:59;25.80;61.70
23499;DHT22;11926;48.120;11.562;2022-10-18T12:04:51;25.90;61.80
23499;DHT22;11926;48.120;11.562;2022-10-18T12:08:04;25.80;61.20
23499;DHT22;11926;48.120;11.562;2022-10-18T12:10:55;25.90;62.50
23499;DHT22;11926;48.120;11.562;2022-10-18T12:13:55;26.00;62.20
23499;DHT22;11926;48.120;11.562;2022-10-18T12:16:43;26.00;61.90
23499;DHT22;11926;48.120;11.562;2022-10-18T12:19:37;26.10;61.00
23499;DHT22;11926;48.120;11.562;2022-10-18T12:22:31;26.10;59.80
23499;DHT22;11926;48.120;11.562;2022-10-18T12:25:21;26.00;59.80
23499;DHT22;11926;48.120;11.562;2022-10-18T12:28:15;26.00;59.90
23499;DHT22;11926;48.120;11.562;2022-10-18T12:31:19;26.10;59.80
23499;DHT22;11926;48.120;11.562;2022-10-18T12:34:27;26.20;60.40
23499;DHT22;11926;48.120;11.562;2022-10-18T12:37:35;26.20;60.60
23499;DHT22;11926;48.120;11.562;2022-10-18T12:40:32;26.20;60.30
23499;DHT22;11926;48.120;11.562;2022-10-18T12:43:23;26.20;59.60
23499;DHT22;11926;48.120;11.562;2022-10-18T12:46:10;26.30;60.30
23499;DHT22;11926;48.120;11.562;2022-10-18T12:49:02;26.30;60.90
23499;DHT22;11926;48.120;11.562;2022-10-18T12:51:52;26.40;59.80
23499;DHT22;11926;48.120;11.562;2022-10-18T12:54:40;26.40;59.10
23499;DHT22;11926;48.120;11.562;2022-10-18T12:58:02;26.40;58.60
23499;DHT22;11926;48.120;11.562;2022-10-18T13:00:53;26.40;58.40
23499;DHT22;11926;48.120;11.562;2022-10-18T13:03:51;26.40;58.10
23499;DHT22;11926;48.120;11.562;2022-10-18T13:16:31;26.40;57.80
23499;DHT22;11926;48.120;11.562;2022-10-18T13:19:27;26.40;57.90
23499;DHT22;11926;48.120;11.562;2022-10-18T13:22:25;26.40;57.60
23499;DHT22;11926;48.120;11.562;2022-10-18T13:25:19;26.40;57.70
23499;DHT22;11926;48.120;11.562;2022-10-18T13:28:14;26.40;57.30
23499;DHT22;11926;48.120;11.562;2022-10-18T13:31:13;26.20;57.90
23499;DHT22;11926;48.120;11.562;2022-10-18T13:34:27;26.20;58.30
23499;DHT22;11926;48.120;11.562;2022-10-18T13:37:21;26.10;58.10
23499;DHT22;11926;48.120;11.562;2022-10-18T13:40:21;26.00;58.40
23499;DHT22;11926;48.120;11.562;2022-10-18T13:49:23;25.80;58.70
23499;DHT22;11926;48.120;11.562;2022-10-18T13:52:26;25.80;58.30
23499;DHT22;11926;48.120;11.562;2022-10-18T13:55:37;25.70;58.20
23499;DHT22;11926;48.120;11.562;2022-10-18T13:58:36;25.70;58.50
23499;DHT22;11926;48.120;11.562;2022-10-18T14:02:03;25.50;58.70
23499;DHT22;11926;48.120;11.562;2022-10-18T14:11:10;25.20;59.20
23499;DHT22;11926;48.120;11.562;2022-10-18T14:14:06;25.10;59.70
23499;DHT22;11926;48.120;11.562;2022-10-18T14:16:59;25.10;59.50
23499;DHT22;11926;48.120;11.562;2022-10-18T14:19:53;25.00;59.50
23499;DHT22;11926;48.120;11.562;2022-10-18T14:22:43;24.90;59.70
23499;DHT22;11926;48.120;11.562;2022-10-18T14:25:34;24.70;60.10
23499;DHT22;11926;48.120;11.562;2022-10-18T14:28:23;24.70;60.90
23499;DHT22;11926;48.120;11.562;2022-10-18T14:31:31;24.60;61.80
23499;DHT22;11926;48.120;11.562;2022-10-18T14:34:20;24.50;63.10
23499;DHT22;11926;48.120;11.562;2022-10-18T14:37:26;24.50;62.70
23499;DHT22;11926;48.120;11.562;2022-10-18T14:40:30;24.40;62.40
23499;DHT22;11926;48.120;11.562;2022-10-18T14:43:18;24.50;63.40
23499;DHT22;11926;48.120;11.562;2022-10-18T14:46:14;24.70;63.00
23499;DHT22;11926;48.120;11.562;2022-10-18T14:49:03;24.90;62.50
23499;DHT22;11926;48.120;11.562;2022-10-18T14:51:54;25.00;61.40
23499;DHT22;11926;48.120;11.562;2022-10-18T14:54:41;25.00;61.20
23499;DHT22;11926;48.120;11.562;2022-10-18T14:57:31;24.90;61.40
23499;DHT22;11926;48.120;11.562;2022-10-18T15:00:32;24.80;62.00
23499;DHT22;11926;48.120;11.562;2022-10-18T15:03:22;24.70;62.10
23499;DHT22;11926;48.120;11.562;2022-10-18T15:06:15;24.60;62.30
23499;DHT22;11926;48.120;11.562;2022-10-18T15:09:03;24.50;62.80
23499;DHT22;11926;48.120;11.562;2022-10-18T15:11:50;24.30;63.00
23499;DHT22;11926;48.120;11.562;2022-10-18T15:14:43;24.30;63.30
23499;DHT22;11926;48.120;11.562;2022-10-18T15:17:32;24.20;63.10
23499;DHT22;11926;48.120;11.562;2022-10-18T15:20:23;24.10;64.00
23499;DHT22;11926;48.120;11.562;2022-10-18T15:23:21;24.00;63.80
23499;DHT22;11926;48.120;11.562;2022-10-18T15:26:11;23.90;63.80
23499;DHT22;11926;48.120;11.562;2022-10-18T15:28:59;23.70;64.10
23499;DHT22;11926;48.120;11.562;2022-10-18T15:31:51;23.70;64.40
23499;DHT22;11926;48.120;11.562;2022-10-18T15:34:38;23.60;64.60
23499;DHT22;11926;48.120;11.562;2022-10-18T15:37:33;23.50;64.50
23499;DHT22;11926;48.120;11.562;2022-10-18T15:40:34;23.40;64.90
23499;DHT22;11926;48.120;11.562;2022-10-18T15:43:36;23.30;65.30
23499;DHT22;11926;48.120;11.562;2022-10-18T15:46:29;23.30;65.20
23499;DHT22;11926;48.120;11.562;2022-10-18T15:55:44;23.10;66.20
23499;DHT22;11926;48.120;11.562;2022-10-18T15:58:41;23.10;66.50
23499;DHT22;11926;48.120;11.562;2022-10-18T16:01:34;23.10;66.60
23499;DHT22;11926;48.120;11.562;2022-10-18T16:04:24;23.10;66.80
23499;DHT22;11926;48.120;11.562;2022-10-18T16:07:11;23.00;67.30
23499;DHT22;11926;48.120;11.562;2022-10-18T16:09:58;23.00;67.40
23499;DHT22;11926;48.120;11.562;2022-10-18T16:12:47;23.00;67.40
23499;DHT22;11926;48.120;11.562;2022-10-18T16:15:34;22.90;67.60
23499;DHT22;11926;48.120;11.562;2022-10-18T16:18:23;22.90;68.10
23499;DHT22;11926;48.120;11.562;2022-10-18T16:21:21;22.90;68.50
23499;DHT22;11926;48.120;11.562;2022-10-18T16:24:08;22.80;69.10
23499;DHT22;11926;48.120;11.562;2022-10-18T16:26:55;22.70;69.80
23499;DHT22;11926;48.120;11.562;2022-10-18T16:29:43;22.60;70.40
23499;DHT22;11926;48.120;11.562;2022-10-18T16:32:31;22.60;71.20
23499;DHT22;11926;48.120;11.562;2022-10-18T16:35:19;22.50;72.10
23499;DHT22;11926;48.120;11.562;2022-10-18T16:38:12;22.50;73.40
23499;DHT22;11926;48.120;11.562;2022-10-18T16:41:06;22.50;74.30
23499;DHT22;11926;48.120;11.562;2022-10-18T16:43:54;22.40;75.30
23499;DHT22;11926;48.120;11.562;2022-10-18T16:46:44;22.30;75.90
23499;DHT22;11926;48.120;11.562;2022-10-18T16:49:39;22.20;76.90
23499;DHT22;11926;48.120;11.562;2022-10-18T16:55:14;22.00;77.40
23499;DHT22;11926;48.120;11.562;2022-10-18T16:58:09;21.90;78.70
23499;DHT22;11926;48.120;11.562;2022-10-18T17:01:02;21.90;79.50
23499;DHT22;11926;48.120;11.562;2022-10-18T17:03:56;21.70;81.00
23499;DHT22;11926;48.120;11.562;2022-10-18T17:06:44;21.70;82.30
23499;DHT22;11926;48.120;11.562;2022-10-18T17:09:32;21.60;81.80
23499;DHT22;11926;48.120;11.562;2022-10-18T17:12:22;21.50;82.30
23499;DHT22;11926;48.120;11.562;2022-10-18T17:15:12;21.50;82.90
23499;DHT22;11926;48.120;11.562;2022-10-18T17:18:01;21.40;83.60
23499;DHT22;11926;48.120;11.562;2022-10-18T17:20:52;21.30;84.20
23499;DHT22;11926;48.120;11.562;2022-10-18T17:23:42;21.30;84.70
23499;DHT22;11926;48.120;11.562;2022-10-18T17:26:31;21.10;84.90
23499;DHT22;11926;48.120;11.562;2022-10-18T17:29:19;21.10;85.70
23499;DHT22;11926;48.120;11.562;2022-10-18T17:32:09;21.00;85.90
23499;DHT22;11926;48.120;11.562;2022-10-18T17:35:00;20.90;86.00
23499;DHT22;11926;48.120;11.562;2022-10-18T17:37:50;20.90;86.40
23499;DHT22;11926;48.120;11.562;2022-10-18T17:40:40;20.80;86.80
23499;DHT22;11926;48.120;11.562;2022-10-18T17:43:28;20.70;87.00
23499;DHT22;11926;48.120;11.562;2022-10-18T17:46:16;20.70;87.30
23499;DHT22;11926;48.120;11.562;2022-10-18T17:49:04;20.60;87.70
23499;DHT22;11926;48.120;11.562;2022-10-18T17:51:51;20.50;88.20
23499;DHT22;11926;48.120;11.562;2022-10-18T17:54:39;20.40;88.20
23499;DHT22;11926;48.120;11.562;2022-10-18T17:57:27;20.40;88.50
23499;DHT22;11926;48.120;11.562;2022-10-18T18:00:14;20.30;88.70
23499;DHT22;11926;48.120;11.562;2022-10-18T18:03:02;20.30;88.70
23499;DHT22;11926;48.120;11.562;2022-10-18T18:05:49;20.20;88.60
23499;DHT22;11926;48.120;11.562;2022-10-18T18:08:36;20.20;88.80
23499;DHT22;11926;48.120;11.562;2022-10-18T18:11:26;20.10;88.70
23499;DHT22;11926;48.120;11.562;2022-10-18T18:14:14;20.10;88.90
23499;DHT22;11926;48.120;11.562;2022-10-18T18:17:01;20.00;89.10
23499;DHT22;11926;48.120;11.562;2022-10-18T18:19:48;20.00;89.20
23499;DHT22;11926;48.120;11.562;2022-10-18T18:22:36;19.90;89.40
23499;DHT22;11926;48.120;11.562;2022-10-18T18:25:27;19.90;89.70